Time;durP1;ratioP1;P1;durP2;ratioP2;P2;SDS_P1;SDS_P2;PMS_P1;PMS_P2;Temp;Humidity;BMP_temperature;BMP_pressure;BME280_temperature;BME280_humidity;BME280_pressure;Samples;Min_cycle;Max_cycle;Signal;HPM_P1;HPM_P2
2022/06/19 00:01:45;;;;;;;9.15;2.25;;;15.50;78.70;;;;;;5071708;28;20447;-84
2022/06/19 00:04:12;;;;;;;11.00;2.40;;;15.50;78.80;;;;;;5052595;28;20448;-84
2022/06/19 00:06:39;;;;;;;9.07;2.20;;;15.50;78.80;;;;;;5055513;28;20465;-84
2022/06/19 00:09:05;;;;;;;11.93;2.63;;;15.30;79.60;;;;;;5057657;28;20032;-84
2022/06/19 00:11:33;;;;;;;10.82;2.47;;;15.20;79.80;;;;;;5052282;28;20547;-84
2022/06/19 00:13:59;;;;;;;15.63;2.30;;;15.10;80.20;;;;;;5059739;28;20040;-84
2022/06/19 00:16:25;;;;;;;11.75;2.28;;;15.10;80.40;;;;;;5067457;28;20364;-84
2022/06/19 00:18:50;;;;;;;14.30;2.70;;;15.10;80.60;;;;;;5062514;28;20032;-84
2022/06/19 00:21:17;;;;;;;10.45;2.80;;;15.00;80.60;;;;;;5053653;28;20020;-84
2022/06/19 00:23:44;;;;;;;11.27;2.30;;;14.90;81.00;;;;;;5073074;28;20028;-84
2022/06/19 00:26:10;;;;;;;13.32;2.72;;;14.90;81.80;;;;;;5049954;28;20031;-84
2022/06/19 00:28:35;;;;;;;10.70;2.60;;;14.90;81.60;;;;;;5052639;28;20375;-84
2022/06/19 00:31:01;;;;;;;14.70;2.45;;;14.90;81.80;;;;;;5053465;28;20033;-84
2022/06/19 00:33:27;;;;;;;13.63;2.67;;;14.80;82.00;;;;;;5051920;28;20065;-84
2022/06/19 00:35:52;;;;;;;14.38;2.70;;;14.80;82.00;;;;;;5054506;28;20029;-84
2022/06/19 00:38:18;;;;;;;10.55;2.53;;;14.80;82.40;;;;;;5043427;28;20169;-84
2022/06/19 00:40:43;;;;;;;8.18;2.30;;;14.70;82.70;;;;;;5048595;28;20075;-84
2022/06/19 00:43:09;;;;;;;13.23;2.50;;;14.60;83.00;;;;;;5053562;28;20025;-84
2022/06/19 00:45:42;;;;;;;13.60;2.53;;;14.60;83.20;;;;;;5066499;28;20032;-84
2022/06/19 00:48:16;;;;;;;15.32;3.22;;;14.60;83.30;;;;;;5051073;28;20028;-84
2022/06/19 00:50:45;;;;;;;16.75;2.88;;;14.60;83.20;;;;;;5052329;28;20029;-84
2022/06/19 00:53:17;;;;;;;18.08;2.60;;;14.50;83.70;;;;;;5045736;28;20075;-84
2022/06/19 00:55:46;;;;;;;15.18;2.83;;;14.50;83.90;;;;;;5070997;28;20058;-84
2022/06/19 00:58:24;;;;;;;15.02;2.80;;;14.50;84.10;;;;;;5052582;28;20506;-84
2022/06/19 01:00:54;;;;;;;17.20;2.50;;;14.50;84.20;;;;;;5052883;28;20085;-84
2022/06/19 01:03:49;;;;;;;14.90;2.47;;;14.50;84.50;;;;;;5052641;28;20476;-84
2022/06/19 01:06:14;;;;;;;15.05;2.53;;;14.40;84.30;;;;;;5033580;28;20426;-84
2022/06/19 01:08:40;;;;;;;11.82;2.30;;;14.40;84.70;;;;;;5054994;28;20020;-84
2022/06/19 01:11:05;;;;;;;15.02;2.55;;;14.40;84.80;;;;;;5055952;28;20025;-84
2022/06/19 01:13:32;;;;;;;12.20;2.17;;;14.30;84.70;;;;;;5051868;28;20049;-84
2022/06/19 01:15:59;;;;;;;16.63;3.17;;;14.30;85.00;;;;;;5051028;28;20036;-84
2022/06/19 01:18:25;;;;;;;13.90;2.97;;;14.30;84.90;;;;;;5052930;28;20041;-84
2022/06/19 01:20:57;;;;;;;16.65;2.42;;;14.20;85.00;;;;;;5049387;28;20028;-84
2022/06/19 01:23:48;;;;;;;12.32;2.70;;;14.30;85.20;;;;;;5046157;28;20074;-84
2022/06/19 01:26:14;;;;;;;13.43;2.78;;;14.10;85.20;;;;;;5051880;28;20056;-84
2022/06/19 01:28:46;;;;;;;13.18;2.88;;;14.10;85.40;;;;;;5069234;28;20036;-84
2022/06/19 01:31:18;;;;;;;15.95;2.50;;;14.10;85.50;;;;;;5041993;28;20028;-84
2022/06/19 01:33:50;;;;;;;14.40;2.90;;;14.10;85.40;;;;;;5068154;28;20036;-84
2022/06/19 01:36:19;;;;;;;11.77;2.75;;;14.10;85.50;;;;;;5071898;28;20365;-84
2022/06/19 01:38:49;;;;;;;12.23;2.63;;;14.00;85.80;;;;;;5070098;28;20045;-84
2022/06/19 01:41:21;;;;;;;16.65;2.45;;;14.00;85.90;;;;;;5051731;28;20384;-84
2022/06/19 01:43:47;;;;;;;13.95;2.88;;;14.00;86.10;;;;;;5065931;28;20036;-84
2022/06/19 01:46:15;;;;;;;13.25;2.88;;;14.00;85.80;;;;;;5071132;28;20513;-84
2022/06/19 01:48:41;;;;;;;14.55;3.20;;;13.90;85.70;;;;;;5050849;28;20060;-84
2022/06/19 01:51:07;;;;;;;16.13;2.83;;;13.90;85.90;;;;;;5054464;28;20032;-84
2022/06/19 01:54:00;;;;;;;12.35;2.63;;;14.00;85.80;;;;;;5053948;28;20035;-84
2022/06/19 01:56:25;;;;;;;13.25;2.53;;;13.90;85.90;;;;;;5063012;28;20029;-84
2022/06/19 01:58:54;;;;;;;20.67;3.10;;;13.90;86.10;;;;;;5054314;28;20019;-84
2022/06/19 02:01:20;;;;;;;18.50;2.70;;;14.00;85.80;;;;;;5069701;28;20049;-84
2022/06/19 02:03:51;;;;;;;17.88;3.05;;;14.00;86.10;;;;;;5054549;28;20063;-84
2022/06/19 02:06:23;;;;;;;18.67;3.88;;;14.00;85.80;;;;;;5055643;28;20479;-84
2022/06/19 02:08:49;;;;;;;11.48;2.67;;;14.00;86.10;;;;;;5068718;28;20359;-85
2022/06/19 02:11:16;;;;;;;10.52;2.28;;;14.00;86.10;;;;;;5048632;28;20041;-86
2022/06/19 02:13:43;;;;;;;14.68;2.95;;;14.10;85.90;;;;;;5051738;28;20060;-85
2022/06/19 02:16:14;;;;;;;13.95;2.45;;;14.10;85.70;;;;;;5046259;28;20066;-85
2022/06/19 02:18:44;;;;;;;10.85;2.83;;;14.20;85.50;;;;;;5069090;28;20047;-85
2022/06/19 02:21:14;;;;;;;13.18;2.92;;;14.20;85.10;;;;;;5063466;28;20480;-85
2022/06/19 02:23:40;;;;;;;14.82;3.28;;;14.30;85.10;;;;;;5055358;28;20035;-85
2022/06/19 02:26:09;;;;;;;13.13;3.10;;;14.30;84.70;;;;;;5068718;28;20041;-85
2022/06/19 02:28:38;;;;;;;15.15;2.90;;;14.40;84.40;;;;;;5069786;28;20027;-84
2022/06/19 02:31:06;;;;;;;16.10;2.85;;;14.30;84.40;;;;;;5069946;28;20033;-85
2022/06/19 02:33:36;;;;;;;12.63;3.00;;;14.30;84.30;;;;;;5050172;28;20049;-85
2022/06/19 02:36:22;;;;;;;12.30;2.80;;;14.30;84.30;;;;;;5044930;28;20098;-84
2022/06/19 02:38:47;;;;;;;14.25;2.65;;;14.30;83.80;;;;;;5053234;28;20086;-84
2022/06/19 02:41:24;;;;;;;14.82;2.75;;;14.20;83.80;;;;;;5050675;28;20030;-84
2022/06/19 02:43:50;;;;;;;12.07;2.80;;;14.30;83.70;;;;;;5054261;28;20472;-84
2022/06/19 02:46:15;;;;;;;11.82;2.55;;;14.20;83.60;;;;;;5051199;28;20039;-84
2022/06/19 02:48:41;;;;;;;13.63;2.47;;;14.20;83.40;;;;;;5069991;28;20036;-84
2022/06/19 02:51:06;;;;;;;11.57;2.90;;;14.20;83.10;;;;;;5057208;28;20082;-84
2022/06/19 02:53:32;;;;;;;13.90;2.15;;;14.10;82.70;;;;;;5070752;28;20033;-84
2022/06/19 02:55:58;;;;;;;11.98;2.88;;;14.10;82.60;;;;;;5046409;28;20028;-85
2022/06/19 02:58:24;;;;;;;13.43;2.65;;;14.10;83.00;;;;;;5048720;28;20025;-85
2022/06/19 03:00:51;;;;;;;20.27;2.67;;;14.00;83.10;;;;;;5069331;28;20052;-85
2022/06/19 03:03:26;;;;;;;15.25;2.60;;;14.00;83.30;;;;;;5052224;28;20031;-85
2022/06/19 03:05:51;;;;;;;16.50;2.45;;;14.00;83.30;;;;;;5063964;28;20491;-85
2022/06/19 03:08:17;;;;;;;14.32;2.80;;;13.90;83.40;;;;;;5074918;28;20033;-84
2022/06/19 03:10:43;;;;;;;13.73;2.88;;;13.90;83.50;;;;;;5052074;28;20028;-84
2022/06/19 03:13:08;;;;;;;16.55;3.03;;;13.80;83.20;;;;;;5037682;28;20052;-84
2022/06/19 03:15:34;;;;;;;14.60;2.47;;;13.80;83.30;;;;;;5035665;28;20032;-84
2022/06/19 03:17:59;;;;;;;13.10;2.58;;;13.90;83.30;;;;;;5039276;28;20420;-84
2022/06/19 03:20:27;;;;;;;17.05;2.58;;;13.80;83.10;;;;;;5036313;28;20029;-84
2022/06/19 03:22:53;;;;;;;8.35;2.40;;;13.90;83.00;;;;;;5043222;28;20021;-84
2022/06/19 03:25:19;;;;;;;11.95;2.67;;;13.90;82.90;;;;;;5034268;28;20025;-84
2022/06/19 03:27:45;;;;;;;14.50;2.90;;;13.80;83.10;;;;;;5033126;28;20443;-84
2022/06/19 03:30:12;;;;;;;17.75;2.58;;;14.00;83.60;;;;;;5033993;28;20032;-84
2022/06/19 03:32:38;;;;;;;13.82;2.60;;;14.00;83.90;;;;;;5032384;28;20044;-84
2022/06/19 03:35:04;;;;;;;18.23;3.13;;;14.00;84.20;;;;;;5051635;28;20034;-84
2022/06/19 03:37:29;;;;;;;22.70;3.33;;;14.00;84.70;;;;;;5036849;28;20055;-85
2022/06/19 03:39:55;;;;;;;14.98;3.50;;;14.10;84.80;;;;;;5047279;28;20422;-85
2022/06/19 03:42:20;;;;;;;16.52;3.45;;;14.10;84.90;;;;;;5031528;28;20026;-85
2022/06/19 03:44:46;;;;;;;14.10;2.90;;;14.20;85.00;;;;;;5030566;28;20033;-85
2022/06/19 03:47:19;;;;;;;15.32;2.75;;;14.20;85.00;;;;;;5041230;28;20090;-84
2022/06/19 03:49:45;;;;;;;18.85;3.17;;;14.30;85.30;;;;;;5052631;28;20055;-85
2022/06/19 03:52:11;;;;;;;19.40;2.97;;;14.30;85.00;;;;;;5064104;28;20032;-85
2022/06/19 03:54:36;;;;;;;12.40;2.63;;;14.30;85.30;;;;;;5032945;28;20119;-85
2022/06/19 03:57:02;;;;;;;13.90;2.92;;;14.30;85.10;;;;;;5031228;28;20028;-84
2022/06/19 03:59:27;;;;;;;16.42;2.72;;;14.30;85.00;;;;;;5034382;28;20021;-84
2022/06/19 04:01:53;;;;;;;14.82;2.88;;;14.30;84.90;;;;;;5039549;28;20013;-85
2022/06/19 04:04:18;;;;;;;15.35;3.10;;;14.30;85.30;;;;;;5040512;28;20410;-85
2022/06/19 04:06:44;;;;;;;15.80;2.90;;;14.30;85.00;;;;;;5048128;28;20522;-84
2022/06/19 04:09:14;;;;;;;15.30;2.50;;;14.40;84.80;;;;;;5053610;28;20028;-84
2022/06/19 04:11:40;;;;;;;13.70;2.78;;;14.50;84.80;;;;;;5030648;28;20041;-84
2022/06/19 04:14:06;;;;;;;18.20;3.15;;;14.50;84.60;;;;;;5068756;28;20067;-84
2022/06/19 04:16:33;;;;;;;13.18;2.72;;;14.50;83.90;;;;;;5077470;28;20068;-84
2022/06/19 04:19:02;;;;;;;7.82;2.17;;;14.60;82.90;;;;;;5058266;28;20028;-84
2022/06/19 04:21:30;;;;;;;15.98;2.78;;;14.60;82.60;;;;;;5067915;28;20017;-84
2022/06/19 04:24:03;;;;;;;13.07;2.58;;;14.70;82.80;;;;;;5056711;28;20621;-84
2022/06/19 04:26:32;;;;;;;17.27;2.85;;;14.90;82.20;;;;;;5056206;28;20174;-84
2022/06/19 04:28:57;;;;;;;10.68;2.35;;;14.90;81.90;;;;;;5051986;28;20043;-84
2022/06/19 04:31:24;;;;;;;17.80;2.45;;;14.90;81.70;;;;;;5056804;28;20112;-84
2022/06/19 04:33:50;;;;;;;10.30;2.35;;;14.90;81.70;;;;;;5053184;28;20495;-84
2022/06/19 04:36:18;;;;;;;8.93;2.13;;;15.00;81.90;;;;;;5048754;28;20115;-84
2022/06/19 04:38:46;;;;;;;13.85;2.53;;;15.00;81.60;;;;;;5054047;28;20451;-84
2022/06/19 04:41:14;;;;;;;11.95;2.47;;;15.10;81.30;;;;;;5053070;28;20519;-84
2022/06/19 04:43:40;;;;;;;9.63;2.13;;;15.20;81.30;;;;;;5052156;28;20024;-85
2022/06/19 04:46:06;;;;;;;15.05;2.38;;;15.20;80.10;;;;;;5055031;28;20039;-84
2022/06/19 04:48:32;;;;;;;16.05;2.70;;;15.40;80.90;;;;;;5055147;28;20141;-84
2022/06/19 04:50:58;;;;;;;15.82;2.83;;;15.40;80.10;;;;;;5069528;28;20028;-84
2022/06/19 04:53:24;;;;;;;9.57;2.33;;;15.40;79.50;;;;;;5052398;28;20036;-84
2022/06/19 04:55:50;;;;;;;14.77;2.20;;;15.40;79.50;;;;;;5051646;28;20128;-84
2022/06/19 04:58:15;;;;;;;15.05;2.80;;;15.30;79.40;;;;;;5070891;28;20032;-84
2022/06/19 05:00:41;;;;;;;11.93;2.42;;;15.30;80.10;;;;;;5067676;28;20027;-84
2022/06/19 05:03:07;;;;;;;15.05;2.70;;;15.20;79.50;;;;;;5048157;28;20028;-84
2022/06/19 05:05:33;;;;;;;14.02;2.45;;;15.30;79.40;;;;;;5049520;28;20057;-84
2022/06/19 05:07:59;;;;;;;10.15;2.40;;;15.30;79.20;;;;;;5054300;28;20031;-84
2022/06/19 05:10:24;;;;;;;7.45;2.30;;;15.20;79.00;;;;;;5050474;28;20029;-84
2022/06/19 05:12:55;;;;;;;15.45;2.70;;;15.20;78.30;;;;;;5063940;28;20049;-84
2022/06/19 05:15:21;;;;;;;;;;;15.20;78.10;;;;;;5070810;28;20035;-84
2022/06/19 05:17:46;;;;;;;8.27;2.30;;;15.30;78.60;;;;;;5053834;28;20291;-84
2022/06/19 05:20:12;;;;;;;15.65;2.67;;;15.30;78.90;;;;;;5052732;28;20032;-84
2022/06/19 05:22:38;;;;;;;14.35;2.63;;;15.30;79.20;;;;;;5071898;28;20040;-84
2022/06/19 05:25:08;;;;;;;14.75;2.50;;;15.40;78.70;;;;;;5053900;28;20016;-84
2022/06/19 05:27:36;;;;;;;9.77;2.53;;;15.40;79.20;;;;;;5070862;28;20017;-84
2022/06/19 05:30:02;;;;;;;13.30;2.55;;;15.50;79.00;;;;;;5054396;28;20036;-83
2022/06/19 05:32:29;;;;;;;11.10;2.28;;;15.50;78.60;;;;;;5050237;28;20475;-83
2022/06/19 05:34:54;;;;;;;9.93;2.47;;;15.60;78.50;;;;;;5072473;28;20025;-84
2022/06/19 05:37:20;;;;;;;9.98;1.95;;;15.60;78.30;;;;;;5055334;28;20387;-84
2022/06/19 05:39:45;;;;;;;12.65;2.42;;;15.70;78.30;;;;;;5050222;28;20025;-84
2022/06/19 05:42:11;;;;;;;11.15;2.33;;;15.90;78.00;;;;;;5063298;28;20017;-84
2022/06/19 05:44:37;;;;;;;6.70;2.13;;;15.90;77.10;;;;;;5049491;28;20021;-83
2022/06/19 05:47:02;;;;;;;15.18;3.03;;;15.90;76.90;;;;;;5072695;28;20030;-83
2022/06/19 05:49:28;;;;;;;11.13;2.75;;;16.00;77.20;;;;;;5052200;28;20396;-84
2022/06/19 05:51:54;;;;;;;12.38;2.28;;;16.20;76.40;;;;;;5071870;28;20393;-84
2022/06/19 05:54:19;;;;;;;15.13;2.78;;;16.40;76.10;;;;;;5050988;28;20024;-84
2022/06/19 05:56:45;;;;;;;12.00;2.42;;;16.40;75.90;;;;;;5065805;28;20032;-84
2022/06/19 05:59:10;;;;;;;8.55;1.85;;;16.60;75.20;;;;;;5067064;28;20047;-84
2022/06/19 06:01:36;;;;;;;11.27;2.60;;;16.70;74.90;;;;;;5064988;28;20032;-83
2022/06/19 06:04:01;;;;;;;13.88;2.40;;;16.70;75.40;;;;;;5053478;28;20046;-84
2022/06/19 06:06:30;;;;;;;13.80;2.78;;;16.80;75.60;;;;;;5054513;28;20127;-84
2022/06/19 06:08:56;;;;;;;14.23;2.40;;;16.80;76.20;;;;;;5051144;28;20522;-84
2022/06/19 06:11:23;;;;;;;11.00;2.58;;;16.70;75.90;;;;;;5054167;28;20038;-83
2022/06/19 06:13:49;;;;;;;12.98;2.47;;;16.80;75.60;;;;;;5048290;28;21734;-84
2022/06/19 06:16:18;;;;;;;15.95;2.78;;;16.80;75.50;;;;;;5064851;28;20035;-84
2022/06/19 06:18:44;;;;;;;9.88;2.70;;;16.80;76.00;;;;;;5071794;28;20056;-83
2022/06/19 06:21:15;;;;;;;13.00;2.55;;;16.90;75.80;;;;;;5067227;28;20083;-84
2022/06/19 06:23:42;;;;;;;16.90;2.38;;;17.00;76.90;;;;;;5052954;28;20472;-84
2022/06/19 06:26:10;;;;;;;10.20;2.17;;;17.00;75.80;;;;;;5053117;28;20036;-84
2022/06/19 06:28:38;;;;;;;9.38;2.10;;;17.00;76.20;;;;;;5063792;28;20036;-84
2022/06/19 06:31:04;;;;;;;11.77;2.47;;;17.00;75.90;;;;;;5057522;28;20487;-84
2022/06/19 06:33:30;;;;;;;13.45;2.45;;;17.30;75.80;;;;;;5065884;28;20024;-84
2022/06/19 06:35:56;;;;;;;15.23;3.22;;;17.10;75.50;;;;;;5051157;28;20113;-84
2022/06/19 06:38:22;;;;;;;16.92;2.63;;;16.90;75.70;;;;;;5072696;28;20108;-83
2022/06/19 06:40:48;;;;;;;10.02;2.08;;;17.00;75.80;;;;;;5068676;28;20395;-84
2022/06/19 06:43:14;;;;;;;13.52;2.70;;;17.00;76.10;;;;;;5061451;28;20024;-84
2022/06/19 06:45:40;;;;;;;10.35;2.22;;;17.00;75.10;;;;;;5067257;28;20106;-84
2022/06/19 06:48:06;;;;;;;12.65;2.15;;;17.20;74.50;;;;;;5049969;28;20033;-84
2022/06/19 06:50:32;;;;;;;12.45;2.55;;;17.50;74.00;;;;;;5052248;28;20073;-84
2022/06/19 06:52:58;;;;;;;11.43;2.60;;;17.30;72.30;;;;;;5050582;28;20039;-84
2022/06/19 06:55:23;;;;;;;13.43;2.17;;;17.80;72.70;;;;;;5066277;28;20025;-83
2022/06/19 06:57:49;;;;;;;13.00;2.60;;;18.30;72.70;;;;;;5048953;28;20025;-85
2022/06/19 07:00:18;;;;;;;15.73;2.88;;;18.70;71.40;;;;;;5050346;28;20085;-85
2022/06/19 07:02:44;;;;;;;9.13;2.40;;;18.90;70.90;;;;;;5067549;28;20032;-85
2022/06/19 07:05:10;;;;;;;10.52;2.38;;;18.60;67.10;;;;;;5069722;28;20025;-86
2022/06/19 07:07:36;;;;;;;13.05;2.20;;;18.50;69.00;;;;;;5067329;28;20086;-85
2022/06/19 07:10:02;;;;;;;10.95;2.65;;;18.40;68.40;;;;;;5064726;28;20033;-85
2022/06/19 07:12:28;;;;;;;6.22;1.90;;;18.30;68.20;;;;;;5068181;28;20043;-85
2022/06/19 07:14:53;;;;;;;10.80;2.28;;;18.50;68.20;;;;;;5048275;28;20585;-84
2022/06/19 07:17:19;;;;;;;8.27;2.17;;;18.50;68.30;;;;;;5064830;28;20392;-84
2022/06/19 07:19:44;;;;;;;9.02;1.98;;;18.90;68.40;;;;;;5050786;28;20105;-85
2022/06/19 07:22:14;;;;;;;7.50;2.22;;;19.10;67.50;;;;;;5047946;28;20495;-84
2022/06/19 07:24:41;;;;;;;10.60;2.07;;;19.20;67.50;;;;;;5044754;28;20028;-84
2022/06/19 07:27:07;;;;;;;11.80;2.40;;;19.30;65.70;;;;;;5061863;28;20282;-84
2022/06/19 07:29:33;;;;;;;7.95;1.98;;;19.40;65.80;;;;;;5045180;28;20032;-85
2022/06/19 07:31:58;;;;;;;12.40;2.20;;;19.30;66.50;;;;;;5045498;28;20414;-85
2022/06/19 07:34:23;;;;;;;6.95;2.20;;;19.30;64.80;;;;;;5064642;28;20027;-85
2022/06/19 07:36:49;;;;;;;7.45;1.60;;;19.60;65.80;;;;;;5049001;28;20108;-84
2022/06/19 07:39:15;;;;;;;5.88;1.88;;;20.00;64.70;;;;;;5053189;28;20092;-85
2022/06/19 07:41:40;;;;;;;12.00;2.17;;;19.90;63.50;;;;;;5068191;28;20027;-85
2022/06/19 07:44:06;;;;;;;14.27;1.98;;;20.00;62.80;;;;;;5060813;28;20017;-85
2022/06/19 07:46:31;;;;;;;7.78;1.67;;;20.20;61.60;;;;;;5046221;28;20101;-85
2022/06/19 07:51:41;;;;;;;10.98;2.10;;;20.20;61.20;;;;;;5067539;28;20048;-85
2022/06/19 07:54:07;;;;;;;6.45;1.58;;;19.80;61.20;;;;;;5044024;28;21543;-85
2022/06/19 07:56:33;;;;;;;9.50;1.77;;;19.90;62.10;;;;;;5065406;28;20123;-83
2022/06/19 07:58:58;;;;;;;8.82;1.92;;;19.90;61.90;;;;;;5071452;28;20691;-84
2022/06/19 08:01:24;;;;;;;12.50;1.88;;;20.00;61.00;;;;;;5053869;28;20141;-84
2022/06/19 08:03:50;;;;;;;8.90;2.03;;;20.00;61.80;;;;;;5066240;28;20100;-84
2022/06/19 08:06:17;;;;;;;8.35;2.00;;;19.90;62.00;;;;;;5054359;28;20480;-84
2022/06/19 08:08:43;;;;;;;10.80;1.80;;;20.00;62.00;;;;;;5067377;28;20103;-84
2022/06/19 08:11:09;;;;;;;14.88;2.00;;;20.30;60.10;;;;;;5042297;28;20477;-84
2022/06/19 08:13:35;;;;;;;10.35;1.90;;;20.80;58.40;;;;;;5050715;28;20442;-84
2022/06/19 08:16:07;;;;;;;10.32;1.98;;;21.10;59.00;;;;;;5052522;28;20123;-84
2022/06/19 08:18:34;;;;;;;7.05;1.67;;;21.30;57.20;;;;;;5050533;28;20053;-84
2022/06/19 08:21:00;;;;;;;11.50;1.95;;;20.80;56.60;;;;;;5063925;28;20074;-84
2022/06/19 08:23:27;;;;;;;9.20;2.00;;;20.60;59.00;;;;;;5064449;28;20052;-85
2022/06/19 08:25:52;;;;;;;6.35;1.40;;;21.20;58.40;;;;;;5061300;28;20098;-84
2022/06/19 08:28:45;;;;;;;6.50;1.52;;;21.90;54.70;;;;;;5048511;28;20025;-84
2022/06/19 08:31:11;;;;;;;7.38;1.13;;;21.90;53.60;;;;;;5051305;28;20501;-84
2022/06/19 08:33:36;;;;;;;4.72;1.23;;;21.50;53.10;;;;;;5069452;28;20103;-85
2022/06/19 08:36:10;;;;;;;5.13;1.58;;;21.60;51.40;;;;;;5069066;28;20035;-82
2022/06/19 08:38:39;;;;;;;6.38;1.52;;;21.10;53.70;;;;;;5053621;28;20468;-82
2022/06/19 08:41:29;;;;;;;4.72;1.42;;;21.40;54.30;;;;;;5068377;28;20175;-82
2022/06/19 08:44:01;;;;;;;5.43;1.33;;;21.70;54.70;;;;;;5063223;28;20016;-82
2022/06/19 08:46:47;;;;;;;8.23;1.45;;;22.10;53.50;;;;;;5070221;28;20392;-82
2022/06/19 08:49:37;;;;;;;7.38;1.38;;;22.00;50.20;;;;;;5054493;28;20028;-82
2022/06/19 08:52:19;;;;;;;5.57;1.20;;;23.00;52.30;;;;;;5067929;28;20044;-82
2022/06/19 08:55:14;;;;;;;6.20;1.20;;;22.50;48.50;;;;;;5048796;28;20032;-82
2022/06/19 08:57:48;;;;;;;6.68;1.60;;;22.00;49.20;;;;;;5062057;28;20476;-82
2022/06/19 09:00:23;;;;;;;5.93;1.27;;;22.40;51.40;;;;;;5060072;28;20040;-82
2022/06/19 09:03:19;;;;;;;7.20;1.60;;;22.40;48.80;;;;;;5054432;28;20032;-82
2022/06/19 09:06:01;;;;;;;7.78;1.52;;;22.50;49.60;;;;;;5064205;28;20033;-82
2022/06/19 09:08:45;;;;;;;6.22;1.40;;;22.00;49.10;;;;;;5053905;28;20028;-82
2022/06/19 09:11:40;;;;;;;8.07;1.52;;;22.00;48.90;;;;;;5051665;28;20387;-81
2022/06/19 09:14:22;;;;;;;4.40;1.27;;;22.90;51.00;;;;;;5030813;28;20135;-81
2022/06/19 09:17:11;;;;;;;6.60;1.10;;;23.30;45.80;;;;;;5066477;28;20030;-82
2022/06/19 09:19:54;;;;;;;5.88;1.30;;;22.90;47.40;;;;;;5063128;28;20090;-82
2022/06/19 09:22:59;;;;;;;4.65;1.10;;;22.90;45.70;;;;;;5066790;28;20377;-82
2022/06/19 09:25:46;;;;;;;4.40;1.00;;;22.50;44.90;;;;;;5067037;28;20464;-82
2022/06/19 09:28:34;;;;;;;4.22;1.17;;;22.50;45.40;;;;;;5051974;28;20111;-82
2022/06/19 09:31:09;;;;;;;6.07;1.38;;;23.40;44.50;;;;;;5070290;28;20025;-82
2022/06/19 09:33:52;;;;;;;6.22;1.27;;;23.10;45.50;;;;;;5051418;28;20024;-81
2022/06/19 09:36:24;;;;;;;4.25;1.35;;;23.50;42.70;;;;;;5059366;28;20044;-82
2022/06/19 09:39:18;;;;;;;5.30;1.13;;;23.60;42.10;;;;;;5045520;28;20131;-82
2022/06/19 09:41:47;;;;;;;4.50;1.20;;;24.30;43.50;;;;;;5051023;28;20149;-82
2022/06/19 09:44:41;;;;;;;4.82;1.00;;;24.40;39.60;;;;;;5042495;28;20033;-82
2022/06/19 09:47:32;;;;;;;3.58;0.95;;;24.30;39.00;;;;;;5050496;28;20145;-81
2022/06/19 09:50:06;;;;;;;3.50;1.17;;;24.20;37.10;;;;;;5010827;28;20539;-82
2022/06/19 09:52:37;;;;;;;2.90;0.98;;;24.50;37.90;;;;;;5052206;28;20502;-82
2022/06/19 09:55:26;;;;;;;4.35;0.98;;;24.10;41.20;;;;;;5051668;28;20021;-81
2022/06/19 09:58:19;;;;;;;5.95;1.40;;;23.50;40.40;;;;;;5057870;28;20025;-82
2022/06/19 10:00:49;;;;;;;6.40;1.55;;;23.00;43.00;;;;;;5069927;28;20032;-82
2022/06/19 10:03:20;;;;;;;4.35;0.88;;;23.00;44.90;;;;;;5071562;28;20027;-81
2022/06/19 10:05:57;;;;;;;3.97;1.10;;;22.10;43.10;;;;;;5067238;28;20516;-81
2022/06/19 10:08:32;;;;;;;7.93;1.80;;;21.90;43.90;;;;;;5070988;28;20050;-82
2022/06/19 10:11:15;;;;;;;4.22;1.17;;;22.00;44.40;;;;;;5067671;28;20028;-82
2022/06/19 10:13:59;;;;;;;4.68;1.02;;;22.50;45.10;;;;;;5063028;28;20053;-82
2022/06/19 10:16:48;;;;;;;8.05;1.40;;;22.90;43.10;;;;;;5064494;28;20111;-82
2022/06/19 10:19:19;;;;;;;4.88;1.15;;;23.10;42.80;;;;;;5050790;28;20163;-82
2022/06/19 10:22:14;;;;;;;3.47;1.00;;;23.50;43.50;;;;;;5049130;28;20115;-82
2022/06/19 10:25:06;;;;;;;6.15;1.30;;;23.50;45.10;;;;;;5050423;28;20028;-82
2022/06/19 10:28:23;;;;;;;4.75;1.20;;;22.80;45.20;;;;;;5051738;28;20081;-82
2022/06/19 10:31:13;;;;;;;5.97;1.30;;;22.00;47.50;;;;;;5049886;28;20041;-82
2022/06/19 10:33:48;;;;;;;5.95;1.30;;;21.30;49.40;;;;;;5064617;28;20039;-82
2022/06/19 10:36:28;;;;;;;8.52;1.75;;;20.80;48.90;;;;;;5050049;28;20055;-82
2022/06/19 10:38:59;;;;;;;3.88;1.40;;;21.60;49.70;;;;;;5069240;28;20021;-82
2022/06/19 10:42:01;;;;;;;5.20;1.20;;;22.00;47.90;;;;;;5051668;28;20064;-82
2022/06/19 10:44:48;;;;;;;6.72;1.58;;;22.50;47.20;;;;;;5044138;28;20028;-82
2022/06/19 10:47:54;;;;;;;6.85;1.58;;;22.00;50.60;;;;;;5051359;28;20029;-82
2022/06/19 10:50:28;;;;;;;5.95;1.63;;;22.50;54.90;;;;;;5070824;28;20440;-82
2022/06/19 10:53:25;;;;;;;7.00;1.83;;;22.60;56.30;;;;;;5047944;28;20119;-83
2022/06/19 10:56:37;;;;;;;7.68;2.00;;;22.50;55.60;;;;;;5058007;28;20032;-82
2022/06/19 10:59:04;;;;;;;6.75;1.70;;;22.50;55.80;;;;;;5045174;28;20021;-82
2022/06/19 11:04:24;;;;;;;6.70;1.90;;;21.80;56.60;;;;;;5068300;28;20031;-82
2022/06/19 11:06:59;;;;;;;6.20;1.98;;;20.80;59.70;;;;;;5063919;28;20028;-82
2022/06/19 11:09:31;;;;;;;8.68;1.95;;;21.10;60.90;;;;;;5060882;28;20037;-82
2022/06/19 11:12:01;;;;;;;9.65;2.03;;;20.80;60.70;;;;;;5058537;28;20064;-81
2022/06/19 11:14:47;;;;;;;6.82;1.70;;;20.20;62.80;;;;;;5049564;28;20558;-84
2022/06/19 11:17:16;;;;;;;9.63;1.98;;;19.50;63.90;;;;;;5065415;28;20502;-84
2022/06/19 11:19:47;;;;;;;10.18;1.70;;;19.20;65.00;;;;;;5072978;28;20115;-83
2022/06/19 11:22:25;;;;;;;9.73;1.80;;;19.70;64.20;;;;;;5070114;28;20503;-84
2022/06/19 11:24:52;;;;;;;6.75;1.63;;;20.10;64.10;;;;;;5061072;28;20017;-85
2022/06/19 11:27:22;;;;;;;9.10;1.98;;;20.00;64.80;;;;;;5048677;28;20047;-84
2022/06/19 11:29:51;;;;;;;6.20;1.63;;;19.60;64.00;;;;;;5066043;28;20044;-85
2022/06/19 11:32:19;;;;;;;6.43;2.17;;;19.40;65.00;;;;;;5069142;28;20124;-83
2022/06/19 11:35:00;;;;;;;7.32;1.88;;;19.20;64.10;;;;;;5064874;28;20568;-83
2022/06/19 11:37:51;;;;;;;5.93;1.55;;;19.40;64.50;;;;;;5052789;28;20090;-85
2022/06/19 11:40:26;;;;;;;7.10;1.67;;;19.80;64.20;;;;;;5049858;28;20872;-84
2022/06/19 11:42:54;;;;;;;5.32;1.60;;;19.50;64.60;;;;;;5068814;28;20029;-83
2022/06/19 11:45:29;;;;;;;7.97;1.92;;;18.90;65.50;;;;;;5055014;28;20025;-84
2022/06/19 11:47:55;;;;;;;5.72;1.98;;;19.00;67.30;;;;;;5074003;28;20067;-84
2022/06/19 11:50:24;;;;;;;6.82;2.10;;;18.50;67.10;;;;;;5054055;28;20469;-84
2022/06/19 11:52:54;;;;;;;6.40;2.03;;;18.70;68.20;;;;;;5056468;28;20025;-84
2022/06/19 11:55:45;;;;;;;6.70;1.83;;;18.80;70.80;;;;;;5056105;28;20016;-84
2022/06/19 11:58:20;;;;;;;5.50;1.83;;;18.60;71.50;;;;;;5072998;28;20275;-84
2022/06/19 12:00:56;;;;;;;8.15;1.90;;;18.60;72.00;;;;;;5055997;28;20028;-84
2022/06/19 12:03:32;;;;;;;8.10;2.20;;;18.50;74.50;;;;;;5058908;28;20178;-83
2022/06/19 12:06:02;;;;;;;7.10;2.45;;;18.50;77.50;;;;;;5058219;28;20031;-82
2022/06/19 12:08:32;;;;;;;5.40;2.20;;;18.20;77.90;;;;;;5066515;28;20429;-82
2022/06/19 12:11:01;;;;;;;7.95;2.72;;;18.00;80.50;;;;;;5075122;28;20040;-82
2022/06/19 12:13:33;;;;;;;9.23;2.30;;;17.90;81.00;;;;;;5054488;28;20146;-83
2022/06/19 12:16:19;;;;;;;6.78;2.00;;;17.80;81.70;;;;;;5066292;28;20167;-83
2022/06/19 12:18:46;;;;;;;8.43;2.72;;;17.60;81.80;;;;;;5075228;28;20028;-83
2022/06/19 12:21:31;;;;;;;9.40;2.63;;;17.70;82.00;;;;;;5075876;28;20494;-83
2022/06/19 12:24:18;;;;;;;6.68;2.15;;;17.80;81.40;;;;;;5076748;28;20553;-83
2022/06/19 12:26:48;;;;;;;9.20;2.63;;;17.60;80.50;;;;;;5059555;28;20067;-82
2022/06/19 12:29:28;;;;;;;6.18;1.95;;;17.20;80.40;;;;;;5075360;28;20036;-82
2022/06/19 12:32:11;;;;;;;9.48;2.58;;;16.60;80.20;;;;;;5060100;28;20062;-83
2022/06/19 12:34:41;;;;;;;7.88;2.85;;;16.50;81.10;;;;;;5077708;28;20028;-83
2022/06/19 12:37:27;;;;;;;9.75;3.80;;;16.60;82.00;;;;;;5074950;28;20058;-83
2022/06/19 12:39:54;;;;;;;4.50;2.13;;;16.40;80.80;;;;;;5059441;28;20036;-83
2022/06/19 12:42:29;;;;;;;7.85;2.55;;;16.50;81.50;;;;;;5074840;28;20464;-83
2022/06/19 12:45:48;;;;;;;7.07;2.10;;;16.40;80.90;;;;;;5076395;28;20031;-83
2022/06/19 12:48:35;;;;;;;8.30;2.38;;;16.40;81.10;;;;;;5056561;28;20062;-83
2022/06/19 12:51:09;;;;;;;5.55;2.42;;;16.60;81.30;;;;;;5057357;28;20169;-83
2022/06/19 12:53:40;;;;;;;9.93;2.55;;;16.80;81.00;;;;;;5073601;28;20024;-83
2022/06/19 12:56:36;;;;;;;7.70;2.28;;;16.80;79.40;;;;;;5055867;28;20028;-83
2022/06/19 12:59:25;;;;;;;10.85;2.33;;;16.90;80.20;;;;;;5074529;28;20029;-83
2022/06/19 13:02:01;;;;;;;5.63;2.10;;;17.00;79.90;;;;;;5058491;28;20103;-83
2022/06/19 13:04:52;;;;;;;7.97;2.42;;;17.20;78.70;;;;;;5056134;28;20049;-84
2022/06/19 13:07:46;;;;;;;7.47;2.67;;;17.40;79.60;;;;;;5072043;28;20032;-83
2022/06/19 13:10:30;;;;;;;7.20;2.50;;;17.10;78.70;;;;;;5057828;28;20040;-83